Time;durP1;ratioP1;P1;durP2;ratioP2;P2;SDS_P1;SDS_P2;PMS_P1;PMS_P2;Temp;Humidity;BMP_temperature;BMP_pressure;BME280_temperature;BME280_humidity;BME280_pressure;Samples;Min_cycle;Max_cycle;Signal;HPM_P1;HPM_P2
2023/05/11 00:02:04;;;;;;;11.70;9.00;;;;;;;11.14;42.73;100632.00;109202;1277;23406;-80
2023/05/11 00:04:45;;;;;;;13.70;7.90;;;;;;;11.08;42.74;100630.09;109026;1277;22088;-79
2023/05/11 00:07:21;;;;;;;14.00;8.60;;;;;;;11.03;43.00;100629.09;109157;1277;22828;-79
2023/05/11 00:10:06;;;;;;;12.60;8.90;;;;;;;10.96;43.12;100626.16;109117;1277;22006;-79
2023/05/11 00:12:54;;;;;;;10.90;9.00;;;;;;;10.91;43.29;100623.05;109069;1277;21960;-79
2023/05/11 00:15:30;;;;;;;14.40;8.80;;;;;;;10.87;43.38;100625.62;109611;1266;21982;-79
2023/05/11 00:18:15;;;;;;;11.60;9.50;;;;;;;10.84;43.41;100627.13;109914;1270;21971;-81
2023/05/11 00:20:52;;;;;;;18.70;10.20;;;;;;;10.79;43.61;100625.02;109870;1270;21988;-79
2023/05/11 00:23:38;;;;;;;16.30;9.70;;;;;;;10.74;43.62;100631.26;109154;1276;22769;-77
2023/05/11 00:26:27;;;;;;;13.00;10.30;;;;;;;10.70;43.82;100631.08;109311;1275;21983;-79
2023/05/11 00:29:10;;;;;;;18.50;10.60;;;;;;;10.66;43.95;100631.21;109154;1276;23052;-78
2023/05/11 00:31:50;;;;;;;13.80;9.60;;;;;;;10.63;44.13;100630.79;109240;1275;21966;-77
2023/05/11 00:34:27;;;;;;;13.30;10.00;;;;;;;10.58;44.06;100633.54;109205;1276;21827;-80
2023/05/11 00:37:28;;;;;;;19.70;9.80;;;;;;;10.52;44.28;100636.36;109131;1277;22451;-77
2023/05/11 00:40:18;;;;;;;19.50;10.50;;;;;;;10.49;44.25;100634.71;109061;1277;24050;-78
2023/05/11 00:43:00;;;;;;;20.30;10.70;;;;;;;10.43;44.41;100637.02;109561;1259;21945;-78
2023/05/11 00:45:38;;;;;;;12.90;10.70;;;;;;;10.40;44.48;100636.25;109516;1272;22762;-78
2023/05/11 00:48:26;;;;;;;12.90;10.80;;;;;;;10.33;44.65;100638.73;109523;1272;23844;-78
2023/05/11 00:51:12;;;;;;;14.30;11.30;;;;;;;10.28;44.68;100637.47;109721;1272;23002;-77
2023/05/11 00:53:51;;;;;;;14.20;11.20;;;;;;;10.26;44.89;100634.21;109530;1272;21979;-78
2023/05/11 00:56:34;;;;;;;17.10;10.60;;;;;;;10.24;44.91;100629.95;109071;1275;21967;-78
2023/05/11 00:59:26;;;;;;;17.30;12.20;;;;;;;10.22;44.93;100629.84;109054;1275;21987;-78
2023/05/11 01:02:11;;;;;;;13.70;10.40;;;;;;;10.15;44.97;100627.77;109248;1275;23754;-78
2023/05/11 01:04:46;;;;;;;13.20;8.80;;;;;;;10.11;45.14;100629.14;108953;1278;22958;-78
2023/05/11 01:08:01;;;;;;;13.20;10.80;;;;;;;10.08;45.31;100630.27;108589;1284;22968;-78
2023/05/11 01:10:56;;;;;;;18.10;9.60;;;;;;;10.02;45.46;100627.67;108673;1284;24314;-78
2023/05/11 01:14:57;;;;;;;11.70;9.60;;;;;;;9.98;45.54;100626.91;108617;1284;22262;-79
2023/05/11 01:18:04;;;;;;;12.40;10.60;;;;;;;9.88;45.67;100631.05;108399;1287;21998;-78
2023/05/11 01:20:46;;;;;;;11.50;9.40;;;;;;;9.80;45.81;100628.67;108348;1282;23059;-78
2023/05/11 01:23:43;;;;;;;11.80;10.30;;;;;;;9.80;45.88;100630.77;108501;1285;22038;-78
2023/05/11 01:26:37;;;;;;;11.50;10.00;;;;;;;9.77;46.08;100634.66;108708;1281;21986;-77
2023/05/11 01:30:03;;;;;;;12.70;9.20;;;;;;;9.75;46.14;100635.42;108734;1281;22119;-78
2023/05/11 01:32:35;;;;;;;16.60;10.40;;;;;;;9.71;46.14;100632.23;108690;1282;22218;-78
2023/05/11 01:35:19;;;;;;;13.10;8.90;;;;;;;9.69;46.21;100628.14;108691;1282;22016;-79
2023/05/11 01:37:56;;;;;;;11.50;9.20;;;;;;;9.68;46.23;100627.83;108510;1282;22009;-78
2023/05/11 01:40:31;;;;;;;15.50;9.10;;;;;;;9.66;46.17;100624.26;108663;1281;22661;-79
2023/05/11 01:43:17;;;;;;;11.10;9.90;;;;;;;9.63;46.27;100625.89;108686;1281;23856;-77
2023/05/11 01:45:50;;;;;;;12.50;9.90;;;;;;;9.59;46.43;100626.87;108678;1281;22011;-77
2023/05/11 01:48:25;;;;;;;9.60;8.20;;;;;;;9.57;46.40;100623.80;108610;1281;21994;-80
2023/05/11 01:51:01;;;;;;;12.20;9.60;;;;;;;9.56;46.45;100626.08;108657;1281;22010;-79
2023/05/11 01:53:42;;;;;;;14.60;9.00;;;;;;;9.55;46.49;100626.64;109707;1268;22046;-79
2023/05/11 01:56:35;;;;;;;11.90;9.50;;;;;;;9.53;46.46;100627.41;109732;1268;21938;-79
2023/05/11 01:59:17;;;;;;;11.80;9.70;;;;;;;9.51;46.62;100629.21;110180;1268;22015;-78
2023/05/11 02:01:51;;;;;;;14.50;8.40;;;;;;;9.48;46.73;100628.94;109828;1268;21988;-79
2023/05/11 02:04:38;;;;;;;13.60;8.50;;;;;;;9.42;46.75;100624.59;109444;1272;21979;-78
2023/05/11 02:07:18;;;;;;;12.40;8.00;;;;;;;9.40;46.66;100624.48;109013;1277;22263;-79
2023/05/11 02:09:52;;;;;;;11.30;8.30;;;;;;;9.37;46.81;100626.48;108779;1281;21983;-78
2023/05/11 02:12:30;;;;;;;17.90;9.30;;;;;;;9.34;46.92;100626.38;108719;1281;22000;-79
2023/05/11 02:15:02;;;;;;;14.80;8.10;;;;;;;9.31;47.03;100631.34;108776;1281;23093;-79
2023/05/11 02:17:33;;;;;;;14.80;8.90;;;;;;;9.28;46.96;100629.84;108675;1284;22998;-79
2023/05/11 02:20:05;;;;;;;15.70;9.50;;;;;;;9.26;47.10;100627.30;108641;1284;22977;-78
2023/05/11 02:22:36;;;;;;;11.70;8.00;;;;;;;9.25;47.14;100634.98;108784;1281;23158;-79
2023/05/11 02:25:08;;;;;;;13.30;9.00;;;;;;;9.23;47.23;100639.02;109033;1275;21991;-79
2023/05/11 02:27:38;;;;;;;;;;;;;;;9.21;47.22;100641.15;109383;1275;23067;-79
2023/05/11 02:30:09;;;;;;;14.80;9.10;;;;;;;9.11;47.44;100641.41;109269;1275;22485;-78
2023/05/11 02:32:48;;;;;;;16.30;8.10;;;;;;;9.11;47.45;100645.42;108672;1281;22211;-78
2023/05/11 02:35:28;;;;;;;18.20;9.30;;;;;;;9.09;47.70;100644.95;109105;1273;23697;-79
2023/05/11 02:38:02;;;;;;;10.80;9.70;;;;;;;9.07;47.50;100641.70;109203;1273;22786;-80
2023/05/11 02:40:44;;;;;;;13.00;9.60;;;;;;;9.04;47.65;100641.95;109322;1273;21987;-78
2023/05/11 02:43:22;;;;;;;16.00;9.60;;;;;;;9.02;47.70;100645.84;109599;1271;22924;-84
2023/05/11 02:46:02;;;;;;;16.40;10.00;;;;;;;8.99;47.82;100650.59;109500;1273;21991;-84
2023/05/11 02:48:45;;;;;;;15.20;8.50;;;;;;;8.98;48.00;100650.96;109641;1273;22995;-84
2023/05/11 02:51:21;;;;;;;14.50;9.10;;;;;;;8.94;47.91;100648.30;109985;1267;21978;-84
2023/05/11 02:53:56;;;;;;;11.10;8.60;;;;;;;8.90;48.13;100648.56;110659;1267;23772;-78
2023/05/11 02:56:37;;;;;;;11.10;9.60;;;;;;;8.91;48.18;100649.41;110533;1266;21975;-78
2023/05/11 02:59:11;;;;;;;13.90;9.30;;;;;;;8.85;48.24;100652.00;110368;1266;21977;-78
2023/05/11 03:01:51;;;;;;;11.80;9.40;;;;;;;8.80;48.34;100649.35;109859;1271;23717;-79
2023/05/11 03:04:30;;;;;;;17.10;11.60;;;;;;;8.77;48.56;100646.84;109608;1271;21990;-77
2023/05/11 03:07:08;;;;;;;18.40;11.90;;;;;;;8.72;48.63;100647.84;109521;1271;23128;-78
2023/05/11 03:09:43;;;;;;;25.60;15.20;;;;;;;8.68;48.70;100649.30;109636;1271;23766;-78
2023/05/11 03:12:33;;;;;;;21.70;16.10;;;;;;;8.63;48.89;100648.58;109477;1271;22001;-78
2023/05/11 03:15:24;;;;;;;25.40;17.30;;;;;;;8.58;49.10;100647.45;109576;1271;22110;-78
2023/05/11 03:18:04;;;;;;;25.20;17.70;;;;;;;8.53;49.21;100642.90;109593;1271;24561;-78
2023/05/11 03:20:56;;;;;;;19.90;17.00;;;;;;;8.51;49.26;100646.95;110144;1266;24398;-77
2023/05/11 03:23:43;;;;;;;20.10;16.20;;;;;;;8.49;49.67;100645.80;109581;1272;21985;-78
2023/05/11 03:26:30;;;;;;;;;;;;;;;;;;;;;
2023/05/11 03:29:09;;;;;;;17.30;15.30;;;;;;;8.47;50.00;100645.67;108951;1278;22009;-79
2023/05/11 03:31:46;;;;;;;22.70;16.20;;;;;;;8.47;50.04;100646.02;108487;1284;22287;-79
2023/05/11 03:34:30;;;;;;;18.80;14.90;;;;;;;8.48;50.07;100651.90;108347;1288;22760;-79
2023/05/11 03:37:08;;;;;;;23.40;15.60;;;;;;;8.49;50.17;100650.99;108486;1288;23741;-79
2023/05/11 03:39:52;;;;;;;24.00;14.20;;;;;;;8.52;50.29;100650.05;108241;1288;22290;-79
2023/05/11 03:42:43;;;;;;;15.20;13.70;;;;;;;8.55;50.28;100653.09;108417;1290;22019;-80
2023/05/11 03:45:19;;;;;;;20.40;16.50;;;;;;;8.57;50.26;100652.36;108540;1284;21993;-78
2023/05/11 03:47:59;;;;;;;21.40;15.10;;;;;;;8.58;50.25;100655.79;108557;1284;21995;-79
2023/05/11 03:50:45;;;;;;;25.20;15.80;;;;;;;8.61;50.27;100656.25;108636;1284;22003;-79
2023/05/11 03:53:25;;;;;;;18.70;14.70;;;;;;;8.62;50.43;100653.45;108930;1277;21961;-78
2023/05/11 03:56:06;;;;;;;23.80;15.40;;;;;;;8.64;50.40;100655.48;109166;1272;21974;-79
2023/05/11 03:58:46;;;;;;;19.70;14.70;;;;;;;8.67;50.60;100656.29;109583;1265;22634;-78
2023/05/11 04:01:31;;;;;;;20.20;13.30;;;;;;;8.71;50.50;100658.44;109021;1276;22923;-78
2023/05/11 04:04:28;;;;;;;23.00;14.40;;;;;;;8.73;50.57;100660.98;109101;1276;21987;-79
2023/05/11 04:07:21;;;;;;;21.10;13.90;;;;;;;8.75;50.59;100660.42;109357;1272;22476;-77
2023/05/11 04:10:04;;;;;;;15.90;13.90;;;;;;;8.79;50.68;100659.45;109056;1276;22101;-77
2023/05/11 04:12:45;;;;;;;22.20;13.50;;;;;;;8.83;50.63;100660.73;109030;1276;21982;-76
2023/05/11 04:15:19;;;;;;;19.80;12.40;;;;;;;8.87;50.78;100660.11;109137;1276;22290;-77
2023/05/11 04:17:55;;;;;;;19.80;12.40;;;;;;;8.92;50.89;100659.47;108974;1276;21979;-78
2023/05/11 04:20:32;;;;;;;17.20;12.10;;;;;;;9.08;51.17;100661.13;108785;1278;23525;-78
2023/05/11 04:23:07;;;;;;;16.50;11.70;;;;;;;9.25;50.86;100658.06;108929;1278;23454;-79
2023/05/11 04:25:59;;;;;;;12.40;10.50;;;;;;;9.35;50.73;100657.09;109033;1278;22006;-78
2023/05/11 04:29:04;;;;;;;18.80;11.50;;;;;;;9.49;50.56;100655.32;108690;1279;24418;-78
2023/05/11 04:31:50;;;;;;;21.20;10.90;;;;;;;9.59;50.11;100654.69;108576;1284;21808;-77
2023/05/11 04:34:39;;;;;;;18.70;10.40;;;;;;;9.65;49.89;100656.60;108486;1284;21992;-79
2023/05/11 04:37:15;;;;;;;16.30;8.70;;;;;;;9.69;49.76;100656.45;108540;1284;21995;-78
2023/05/11 04:40:09;;;;;;;16.60;10.20;;;;;;;9.76;49.83;100660.61;108980;1277;21983;-78
2023/05/11 04:43:01;;;;;;;15.80;10.50;;;;;;;10.10;50.62;100663.08;109052;1277;22005;-78
2023/05/11 04:46:10;;;;;;;19.00;11.20;;;;;;;10.59;50.58;100670.25;108939;1277;21986;-76
2023/05/11 04:48:47;;;;;;;17.60;10.70;;;;;;;11.18;50.01;100673.28;109054;1277;22634;-85
2023/05/11 04:51:20;;;;;;;18.00;9.70;;;;;;;11.76;49.16;100674.50;108983;1277;21988;-83
2023/05/11 04:53:56;;;;;;;15.80;9.40;;;;;;;12.21;47.82;100673.52;109203;1278;22760;-82
2023/05/11 04:56:28;;;;;;;15.00;8.20;;;;;;;12.55;46.64;100672.49;109152;1277;22340;-82
2023/05/11 04:59:10;;;;;;;13.90;7.90;;;;;;;12.89;45.72;100677.89;109212;1277;23741;-83
2023/05/11 05:01:53;;;;;;;16.90;7.70;;;;;;;13.07;44.62;100672.42;109211;1277;22000;-82
2023/05/11 05:04:46;;;;;;;;;;;;;;;;;;;;;
2023/05/11 05:07:29;;;;;;;12.40;8.80;;;;;;;13.31;43.57;100672.47;109424;1273;21955;-82
2023/05/11 05:10:11;;;;;;;18.40;8.30;;;;;;;13.40;43.29;100671.92;109752;1267;24294;-81
2023/05/11 05:12:43;;;;;;;12.30;8.10;;;;;;;13.56;43.63;100675.36;109471;1272;22907;-82
2023/05/11 05:15:23;;;;;;;14.80;8.60;;;;;;;13.91;43.33;100675.71;109523;1272;22259;-83
2023/05/11 05:18:20;;;;;;;23.30;8.90;;;;;;;14.27;42.59;100681.17;109716;1272;22047;-81
2023/05/11 05:21:13;;;;;;;14.80;7.60;;;;;;;14.55;41.75;100682.12;109702;1272;22045;-86
2023/05/11 05:24:11;;;;;;;13.30;8.00;;;;;;;14.89;41.20;100684.53;109104;1274;21981;-83
2023/05/11 05:26:56;;;;;;;10.40;7.70;;;;;;;15.17;40.49;100684.98;109302;1277;22014;-82
2023/05/11 05:29:58;;;;;;;10.60;6.70;;;;;;;15.53;39.79;100686.10;109334;1277;21998;-81
2023/05/11 05:32:50;;;;;;;11.20;6.00;;;;;;;15.54;38.75;100687.45;109519;1273;22006;-82
2023/05/11 05:35:49;;;;;;;10.00;6.40;;;;;;;15.48;38.77;100684.95;109320;1276;22299;-84
2023/05/11 05:38:31;;;;;;;15.40;5.90;;;;;;;15.47;38.38;100685.36;109438;1276;23714;-84
2023/05/11 05:41:03;;;;;;;14.40;6.50;;;;;;;15.49;38.51;100683.70;109095;1275;22109;-85
2023/05/11 05:43:37;;;;;;;11.70;6.20;;;;;;;15.72;38.77;100684.96;109056;1281;22665;-86
2023/05/11 05:46:07;;;;;;;12.30;5.90;;;;;;;16.06;38.26;100692.56;109152;1281;22243;-83
2023/05/11 05:48:38;;;;;;;8.90;5.80;;;;;;;16.13;37.12;100691.14;109090;1281;22015;-84
2023/05/11 05:51:09;;;;;;;9.30;5.80;;;;;;;16.22;37.24;100691.71;109215;1281;22672;-85
2023/05/11 05:53:41;;;;;;;15.00;5.80;;;;;;;16.39;37.17;100694.77;109102;1277;22087;-83
2023/05/11 05:56:11;;;;;;;16.60;5.70;;;;;;;16.69;36.80;100699.03;109387;1277;23730;-84
2023/05/11 05:58:42;;;;;;;7.80;5.40;;;;;;;16.75;36.09;100697.45;109470;1273;22076;-82
2023/05/11 06:01:16;;;;;;;10.80;5.90;;;;;;;16.78;35.77;100696.05;109991;1266;21811;-83
2023/05/11 06:03:47;;;;;;;14.00;6.20;;;;;;;16.88;35.32;100694.98;110486;1266;21972;-82
2023/05/11 06:06:18;;;;;;;11.20;5.90;;;;;;;17.10;35.42;100701.41;110518;1266;22475;-82
2023/05/11 06:08:50;;;;;;;10.80;5.80;;;;;;;17.38;35.37;100698.00;110416;1266;21825;-83
2023/05/11 06:11:21;;;;;;;11.60;5.90;;;;;;;17.66;34.76;100695.05;110457;1266;22666;-84
2023/05/11 06:13:53;;;;;;;8.70;6.00;;;;;;;17.81;34.03;100692.92;110166;1266;21983;-83
2023/05/11 06:16:25;;;;;;;14.40;6.20;;;;;;;17.89;33.79;100692.24;110474;1266;21962;-82
2023/05/11 06:18:56;;;;;;;10.70;6.70;;;;;;;17.73;33.28;100695.50;110618;1266;22751;-83
2023/05/11 06:21:28;;;;;;;15.10;6.10;;;;;;;17.69;34.01;100696.60;110426;1266;21986;-84
2023/05/11 06:23:58;;;;;;;10.00;5.60;;;;;;;18.07;34.41;100702.73;109801;1273;21787;-83
2023/05/11 06:26:48;;;;;;;11.10;5.40;;;;;;;18.47;33.48;100708.97;109730;1274;22920;-83
2023/05/11 06:29:21;;;;;;;11.90;5.00;;;;;;;18.54;33.18;100701.79;109719;1274;22178;-84
2023/05/11 06:32:02;;;;;;;11.90;4.80;;;;;;;18.62;32.73;100705.52;109884;1274;22325;-88
2023/05/11 06:34:49;;;;;;;13.60;5.90;;;;;;;18.67;32.77;100708.55;109612;1274;22114;-79
2023/05/11 06:37:19;;;;;;;8.60;4.70;;;;;;;18.54;32.29;100705.84;109594;1274;24376;-78
2023/05/11 06:39:52;;;;;;;9.70;5.30;;;;;;;18.19;32.44;100701.81;109815;1274;21984;-84
2023/05/11 06:42:23;;;;;;;10.90;5.00;;;;;;;18.00;33.29;100701.57;109820;1267;21963;-83
2023/05/11 06:44:58;;;;;;;12.90;5.00;;;;;;;17.81;33.24;100704.87;110506;1267;22229;-78
2023/05/11 06:47:30;;;;;;;8.10;4.80;;;;;;;17.71;34.04;100705.45;110563;1267;22070;-77
2023/05/11 06:50:01;;;;;;;8.50;4.60;;;;;;;17.76;33.81;100705.85;110735;1267;21963;-77
2023/05/11 06:52:31;;;;;;;8.40;4.80;;;;;;;17.78;33.80;100704.88;110351;1267;21979;-75
2023/05/11 06:55:03;;;;;;;13.00;5.70;;;;;;;17.68;33.68;100704.10;110407;1267;23599;-77
2023/05/11 06:57:33;;;;;;;11.70;6.00;;;;;;;17.74;34.12;100698.25;110425;1267;23855;-77
2023/05/11 07:00:04;;;;;;;7.90;4.80;;;;;;;17.95;33.93;100700.69;110461;1267;21996;-79
2023/05/11 07:02:35;;;;;;;10.60;4.80;;;;;;;18.00;33.69;100701.11;110341;1267;21974;-77
2023/05/11 07:05:05;;;;;;;13.90;4.90;;;;;;;17.93;33.44;100702.35;110385;1267;22689;-77
2023/05/11 07:07:35;;;;;;;8.10;4.80;;;;;;;17.70;33.48;100703.76;110133;1267;22170;-79
2023/05/11 07:10:08;;;;;;;7.10;4.60;;;;;;;17.58;33.93;100702.42;110612;1267;21974;-79
2023/05/11 07:12:39;;;;;;;9.10;4.40;;;;;;;17.63;34.34;100700.30;110495;1264;22745;-80
2023/05/11 07:15:09;;;;;;;5.90;4.50;;;;;;;17.90;34.12;100703.05;110118;1267;21973;-81
2023/05/11 07:17:46;;;;;;;7.70;4.10;;;;;;;17.97;33.47;100703.85;110732;1265;23705;-80
2023/05/11 07:20:20;;;;;;;12.50;5.60;;;;;;;17.85;33.49;100699.69;110686;1267;21934;-80
2023/05/11 07:22:50;;;;;;;14.30;5.30;;;;;;;17.97;34.10;100698.80;110127;1267;23054;-79
2023/05/11 07:25:21;;;;;;;8.40;4.10;;;;;;;18.31;34.14;100702.97;110397;1267;22298;-80
2023/05/11 07:27:51;;;;;;;10.70;5.00;;;;;;;18.48;33.18;100701.66;110262;1267;23714;-82
2023/05/11 07:30:25;;;;;;;10.50;4.60;;;;;;;18.51;32.95;100703.04;110380;1267;21993;-79
2023/05/11 07:32:55;;;;;;;13.40;4.60;;;;;;;18.54;32.96;100697.22;110535;1267;21988;-80
2023/05/11 07:35:25;;;;;;;7.30;4.60;;;;;;;18.66;32.93;100696.95;110087;1267;22001;-80
2023/05/11 07:37:57;;;;;;;8.50;4.30;;;;;;;18.87;33.06;100701.26;110366;1267;22524;-80
2023/05/11 07:40:27;;;;;;;12.80;5.10;;;;;;;19.14;32.62;100698.41;110367;1267;21993;-80
2023/05/11 07:42:59;;;;;;;7.00;4.30;;;;;;;19.26;31.91;100706.52;110625;1267;21986;-81
2023/05/11 07:45:29;;;;;;;6.70;3.90;;;;;;;19.24;31.79;100705.80;110423;1267;21969;-81
2023/05/11 07:47:58;;;;;;;10.40;4.70;;;;;;;19.39;32.20;100702.98;110555;1267;21983;-78
2023/05/11 07:50:31;;;;;;;14.30;4.30;;;;;;;19.51;31.54;100706.23;109982;1267;23710;-81
2023/05/11 07:53:02;;;;;;;5.50;4.10;;;;;;;19.37;31.35;100708.09;110487;1267;23825;-78
2023/05/11 07:55:32;;;;;;;5.70;3.40;;;;;;;19.19;31.62;100710.95;110369;1267;22761;-83
2023/05/11 07:58:02;;;;;;;10.30;4.30;;;;;;;19.21;31.93;100709.89;109659;1267;454056;-81
2023/05/11 08:00:35;;;;;;;12.00;6.30;;;;;;;19.27;31.82;100712.13;109852;1267;21980;-81
2023/05/11 08:03:09;;;;;;;12.00;7.00;;;;;;;19.20;31.61;100709.80;110317;1267;21990;-82
2023/05/11 08:05:40;;;;;;;7.60;5.60;;;;;;;19.22;31.92;100709.82;109618;1274;22015;-83
2023/05/11 08:08:12;;;;;;;10.90;5.50;;;;;;;19.42;31.79;100705.42;109518;1274;22007;-81
2023/05/11 08:10:43;;;;;;;12.90;6.20;;;;;;;19.54;31.38;100701.08;109740;1274;23782;-85
2023/05/11 08:13:13;;;;;;;11.70;4.50;;;;;;;19.57;31.19;100700.92;109400;1274;22327;-82
2023/05/11 08:15:43;;;;;;;8.20;5.50;;;;;;;19.60;31.32;100700.19;109470;1274;23704;-79
2023/05/11 08:18:20;;;;;;;;;;;;;;;19.81;31.48;100701.85;109468;1274;23631;-79
2023/05/11 08:20:57;;;;;;;15.90;4.60;;;;;;;19.94;31.09;100701.01;109082;1274;23061;-79
2023/05/11 08:23:38;;;;;;;10.50;5.10;;;;;;;20.08;31.02;100704.52;109539;1266;23790;-79
2023/05/11 08:26:37;;;;;;;6.80;3.60;;;;;;;20.51;31.05;100705.70;110262;1266;22116;-80
2023/05/11 08:29:39;;;;;;;6.50;3.70;;;;;;;20.68;29.61;100704.62;110264;1266;22830;-79
2023/05/11 08:32:34;;;;;;;12.20;3.20;;;;;;;20.43;29.43;100705.74;109890;1264;21968;-80
2023/05/11 08:35:31;;;;;;;6.90;3.60;;;;;;;20.20;29.83;100701.77;110480;1266;22028;-80
2023/05/11 08:38:18;;;;;;;9.60;3.10;;;;;;;20.12;30.15;100697.89;109514;1271;21992;-80
2023/05/11 08:40:55;;;;;;;6.30;3.10;;;;;;;20.23;30.46;100693.59;109496;1271;22004;-79
2023/05/11 08:43:56;;;;;;;7.30;3.10;;;;;;;20.52;30.63;100693.94;109563;1271;21976;-80
2023/05/11 08:46:40;;;;;;;5.60;3.40;;;;;;;20.77;29.99;100694.91;109447;1271;21974;-80
2023/05/11 08:49:13;;;;;;;6.20;2.80;;;;;;;20.75;29.58;100694.69;109708;1271;23608;-80
2023/05/11 08:51:52;;;;;;;9.20;2.80;;;;;;;20.70;29.65;100688.71;109724;1271;21976;-80
2023/05/11 08:54:34;;;;;;;7.20;3.10;;;;;;;20.75;29.96;100688.13;109725;1271;21996;-79
2023/05/11 08:57:24;;;;;;;5.70;3.30;;;;;;;21.02;29.65;100685.91;109248;1271;22936;-79
2023/05/11 09:00:12;;;;;;;9.60;3.20;;;;;;;21.36;29.45;100684.08;109685;1271;23696;-80
2023/05/11 09:02:53;;;;;;;6.10;2.80;;;;;;;21.72;28.97;100690.44;109246;1275;24309;-79
2023/05/11 09:05:35;;;;;;;4.70;2.50;;;;;;;21.73;27.96;100692.50;109046;1275;23199;-79
2023/05/11 09:08:14;;;;;;;6.60;2.70;;;;;;;21.49;28.12;100685.17;109361;1278;22436;-79
2023/05/11 09:11:18;;;;;;;4.60;2.60;;;;;;;21.55;28.54;100681.67;109265;1278;21993;-79
2023/05/11 09:14:39;;;;;;;8.00;2.50;;;;;;;21.92;28.14;100680.16;109341;1275;23042;-80
2023/05/11 09:17:29;;;;;;;4.90;2.30;;;;;;;22.11;27.52;100685.09;109439;1275;22520;-79
2023/05/11 09:20:08;;;;;;;6.60;2.90;;;;;;;22.19;27.41;100687.05;109328;1270;22003;-80
2023/05/11 09:22:55;;;;;;;7.40;2.80;;;;;;;22.17;27.63;100683.31;109181;1278;22393;-79
2023/05/11 09:25:40;;;;;;;8.40;3.20;;;;;;;22.29;27.71;100684.13;109260;1274;22000;-81
2023/05/11 09:28:30;;;;;;;7.30;3.40;;;;;;;22.38;27.46;100676.29;109594;1273;23027;-80
2023/05/11 09:31:47;;;;;;;9.00;3.40;;;;;;;22.46;26.85;100675.99;109667;1274;21986;-80
2023/05/11 09:35:02;;;;;;;8.10;3.30;;;;;;;22.64;27.20;100678.43;109615;1273;25126;-80
2023/05/11 09:38:12;;;;;;;4.00;2.60;;;;;;;22.71;26.95;100677.98;109240;1267;23662;-80
2023/05/11 09:41:08;;;;;;;8.40;2.50;;;;;;;22.66;26.98;100680.41;109891;1266;21959;-80
2023/05/11 09:44:40;;;;;;;7.30;2.50;;;;;;;22.53;26.97;100679.38;109641;1272;23637;-81
2023/05/11 09:47:28;;;;;;;3.60;2.40;;;;;;;22.44;27.07;100677.41;109086;1276;22760;-78
2023/05/11 09:50:16;;;;;;;4.30;2.70;;;;;;;22.31;27.24;100676.73;108816;1278;22609;-79
2023/05/11 09:53:19;;;;;;;8.20;2.80;;;;;;;22.23;27.67;100676.48;109105;1278;21999;-80
2023/05/11 09:56:09;;;;;;;7.00;2.80;;;;;;;22.29;27.47;100672.27;108987;1278;22010;-79
2023/05/11 09:58:56;;;;;;;4.40;2.90;;;;;;;22.37;27.46;100675.72;108926;1278;22035;-79
2023/05/11 10:01:43;;;;;;;9.60;5.20;;;;;;;22.42;27.31;100668.20;109293;1273;21977;-79
2023/05/11 10:04:31;;;;;;;4.70;2.50;;;;;;;22.45;27.11;100666.15;109385;1275;22915;-80
2023/05/11 10:07:27;;;;;;;7.40;2.80;;;;;;;22.38;26.99;100668.52;109459;1275;22001;-80
2023/05/11 10:10:18;;;;;;;8.10;2.60;;;;;;;22.37;26.96;100669.81;109469;1264;21985;-80
2023/05/11 10:13:24;;;;;;;4.90;3.20;;;;;;;22.41;26.85;100666.29;109360;1275;21983;-79
2023/05/11 10:16:11;;;;;;;10.60;3.80;;;;;;;22.46;26.52;100665.91;108636;1281;24074;-80
2023/05/11 10:19:10;;;;;;;4.50;2.70;;;;;;;22.43;26.80;100661.91;108856;1281;22001;-80
2023/05/11 10:21:51;;;;;;;10.50;2.90;;;;;;;22.38;26.58;100663.38;108657;1284;22069;-78
2023/05/11 10:24:36;;;;;;;5.90;2.40;;;;;;;22.15;26.94;100662.93;108861;1277;22766;-78
2023/05/11 10:27:33;;;;;;;8.30;2.70;;;;;;;21.91;27.20;100658.11;109090;1277;21973;-80
2023/05/11 10:30:42;;;;;;;;;;;;;;;;;;;;;
2023/05/11 10:33:50;;;;;;;3.60;2.40;;;;;;;21.41;28.18;100651.40;109356;1273;22004;-81
2023/05/11 10:36:39;;;;;;;9.30;2.70;;;;;;;21.40;28.17;100658.65;109426;1274;22019;-81
2023/05/11 10:39:49;;;;;;;4.90;2.70;;;;;;;21.30;28.12;100653.90;109631;1269;23639;-81
2023/05/11 10:42:50;;;;;;;6.30;2.80;;;;;;;21.26;28.27;100649.75;109473;1267;21974;-80
2023/05/11 10:46:21;;;;;;;5.20;2.70;;;;;;;21.38;28.37;100647.60;110809;1269;21978;-81
2023/05/11 10:49:37;;;;;;;6.20;3.50;;;;;;;21.34;28.19;100644.23;110263;1267;23036;-78
2023/05/11 10:52:57;;;;;;;10.60;2.80;;;;;;;21.32;28.52;100644.70;109862;1255;22730;-81
2023/05/11 10:55:57;;;;;;;4.50;2.60;;;;;;;21.33;28.22;100648.55;109375;1274;22292;-80
2023/05/11 10:59:37;;;;;;;4.20;2.90;;;;;;;21.20;27.99;100646.73;109453;1275;22099;-80
2023/05/11 11:14:30;;;;;;;;;;;;;;;;;;;;;
2023/05/11 11:17:46;;;;;;;;;;;;;;;;;;;;;
2023/05/11 11:21:16;;;;;;;;;;;;;;;;;;;;;
2023/05/11 11:24:37;;;;;;;4.90;2.40;;;;;;;20.72;28.45;100630.21;109187;1277;22007;-78
2023/05/11 11:27:55;;;;;;;5.30;2.70;;;;;;;20.65;28.82;100622.75;109230;1276;22993;-80
2023/05/11 11:31:31;;;;;;;4.70;2.90;;;;;;;20.68;28.66;100622.18;109040;1282;23383;-83
2023/05/11 11:35:53;;;;;;;4.10;3.00;;;;;;;20.68;28.27;100624.17;109088;1280;23077;-87
2023/05/11 11:38:54;;;;;;;;;;;;;;;;;;;;;
2023/05/11 11:42:05;;;;;;;3.20;2.90;;;;;;;20.58;28.92;100617.67;108907;1285;22074;-85
2023/05/11 11:46:16;;;;;;;8.50;2.80;;;;;;;20.65;28.91;100624.38;108806;1285;21991;-80
2023/05/11 11:49:17;;;;;;;6.60;2.80;;;;;;;20.65;28.59;100620.62;108116;1288;22098;-91
2023/05/11 11:52:36;;;;;;;3.60;3.10;;;;;;;20.70;28.56;100615.50;108358;1286;21996;-78
2023/05/11 11:55:47;;;;;;;4.70;2.40;;;;;;;20.86;28.72;100619.96;108705;1286;21993;-82
2023/05/11 11:58:39;;;;;;;5.60;2.50;;;;;;;20.98;28.54;100617.26;108171;1292;21995;-81
2023/05/11 12:01:27;;;;;;;10.80;2.90;;;;;;;21.01;28.59;100614.52;108315;1292;22021;-81
2023/05/11 12:04:50;;;;;;;3.10;2.10;;;;;;;21.03;28.30;100618.83;108692;1284;22026;-81
2023/05/11 12:07:35;;;;;;;6.20;2.10;;;;;;;20.97;28.03;100618.42;108721;1283;21986;-81
2023/05/11 12:10:05;;;;;;;6.20;2.50;;;;;;;20.96;28.02;100620.77;108755;1283;23062;-80
2023/05/11 12:12:56;;;;;;;3.90;2.20;;;;;;;20.93;28.09;100621.05;108804;1283;23055;-81
2023/05/11 12:15:42;;;;;;;5.30;2.80;;;;;;;20.94;27.86;100621.27;109162;1274;22743;-81
2023/05/11 12:18:22;;;;;;;7.90;3.10;;;;;;;20.94;27.64;100616.32;109499;1274;21987;-81
2023/05/11 12:20:52;;;;;;;6.30;2.80;;;;;;;20.88;27.57;100618.73;109419;1274;22005;-81
2023/05/11 12:23:29;;;;;;;8.60;2.30;;;;;;;20.83;27.72;100618.21;109917;1268;21978;-81
2023/05/11 12:26:06;;;;;;;4.20;2.50;;;;;;;20.82;27.87;100609.86;111098;1259;21965;-80
2023/05/11 12:28:36;;;;;;;3.20;2.40;;;;;;;20.85;27.99;100610.67;111039;1258;23020;-80
2023/05/11 12:31:07;;;;;;;8.00;4.10;;;;;;;20.87;27.91;100609.44;110795;1259;21980;-82
2023/05/11 12:33:49;;;;;;;4.20;3.30;;;;;;;20.90;27.93;100604.11;110904;1259;22029;-81
2023/05/11 12:36:19;;;;;;;;;;;;;;;20.99;28.00;100600.92;111430;1259;21979;-82
2023/05/11 12:38:49;;;;;;;5.10;2.40;;;;;;;21.01;27.95;100600.20;111253;1259;21975;-80
2023/05/11 12:41:21;;;;;;;7.20;3.30;;;;;;;21.11;27.76;100598.23;111091;1259;21965;-81
2023/05/11 12:43:54;;;;;;;4.60;3.20;;;;;;;21.15;27.67;100591.89;111202;1259;22671;-80
2023/05/11 12:46:28;;;;;;;4.60;3.10;;;;;;;21.22;27.64;100596.85;111128;1259;23033;-81
2023/05/11 12:48:58;;;;;;;4.90;4.10;;;;;;;21.19;27.30;100595.48;110975;1260;24316;-81
2023/05/11 12:51:56;;;;;;;6.40;4.10;;;;;;;21.08;27.18;100588.73;111282;1260;22673;-81
2023/05/11 12:54:39;;;;;;;7.30;4.30;;;;;;;20.97;27.32;100588.14;111324;1259;22127;-80
2023/05/11 12:57:30;;;;;;;7.00;3.70;;;;;;;20.91;27.50;100582.65;111210;1260;21986;-80